sensor_id;sensor_type;location;lat;lon;timestamp;P1;durP1;ratioP1;P2;durP2;ratioP2
25509;SDS011;13413;52.336;21.200;2022-08-21T00:00:18;8.50;;;5.70;;
25509;SDS011;13413;52.336;21.200;2022-08-21T00:04:47;13.30;;;7.20;;
25509;SDS011;13413;52.336;21.200;2022-08-21T00:09:16;9.30;;;5.40;;
25509;SDS011;13413;52.336;21.200;2022-08-21T00:13:44;11.00;;;5.90;;
25509;SDS011;13413;52.336;21.200;2022-08-21T00:18:13;8.30;;;6.00;;
25509;SDS011;13413;52.336;21.200;2022-08-21T00:22:43;8.70;;;5.40;;
25509;SDS011;13413;52.336;21.200;2022-08-21T00:27:11;6.00;;;5.40;;
25509;SDS011;13413;52.336;21.200;2022-08-21T00:31:39;6.30;;;5.30;;
25509;SDS011;13413;52.336;21.200;2022-08-21T00:36:09;6.50;;;5.70;;
25509;SDS011;13413;52.336;21.200;2022-08-21T00:40:38;5.80;;;5.10;;
25509;SDS011;13413;52.336;21.200;2022-08-21T00:45:10;7.50;;;4.90;;
25509;SDS011;13413;52.336;21.200;2022-08-21T00:49:38;8.20;;;5.50;;
25509;SDS011;13413;52.336;21.200;2022-08-21T00:54:08;7.10;;;5.40;;
25509;SDS011;13413;52.336;21.200;2022-08-21T00:58:37;7.40;;;5.70;;
25509;SDS011;13413;52.336;21.200;2022-08-21T01:03:08;6.70;;;5.40;;
25509;SDS011;13413;52.336;21.200;2022-08-21T01:07:38;6.90;;;5.40;;
25509;SDS011;13413;52.336;21.200;2022-08-21T01:12:07;7.10;;;5.40;;
25509;SDS011;13413;52.336;21.200;2022-08-21T01:16:36;6.40;;;5.10;;
25509;SDS011;13413;52.336;21.200;2022-08-21T01:21:10;9.90;;;6.10;;
25509;SDS011;13413;52.336;21.200;2022-08-21T01:25:39;7.10;;;5.30;;
25509;SDS011;13413;52.336;21.200;2022-08-21T01:30:11;7.00;;;5.60;;
25509;SDS011;13413;52.336;21.200;2022-08-21T01:34:43;7.20;;;5.50;;
25509;SDS011;13413;52.336;21.200;2022-08-21T01:39:13;8.00;;;5.50;;
25509;SDS011;13413;52.336;21.200;2022-08-21T01:43:42;8.40;;;5.90;;
25509;SDS011;13413;52.336;21.200;2022-08-21T01:48:11;6.70;;;6.00;;
25509;SDS011;13413;52.336;21.200;2022-08-21T01:52:40;5.90;;;5.30;;
25509;SDS011;13413;52.336;21.200;2022-08-21T01:57:07;5.90;;;5.40;;
25509;SDS011;13413;52.336;21.200;2022-08-21T02:01:38;6.00;;;5.40;;
25509;SDS011;13413;52.336;21.200;2022-08-21T02:06:11;7.40;;;5.70;;
25509;SDS011;13413;52.336;21.200;2022-08-21T02:10:40;7.90;;;5.40;;
25509;SDS011;13413;52.336;21.200;2022-08-21T02:15:08;7.20;;;5.60;;
25509;SDS011;13413;52.336;21.200;2022-08-21T02:19:36;8.50;;;6.30;;
25509;SDS011;13413;52.336;21.200;2022-08-21T02:24:05;6.10;;;5.50;;
25509;SDS011;13413;52.336;21.200;2022-08-21T02:28:33;9.60;;;6.70;;
25509;SDS011;13413;52.336;21.200;2022-08-21T02:33:01;6.50;;;5.90;;
25509;SDS011;13413;52.336;21.200;2022-08-21T02:37:31;11.60;;;5.90;;
25509;SDS011;13413;52.336;21.200;2022-08-21T02:41:57;8.50;;;6.40;;
25509;SDS011;13413;52.336;21.200;2022-08-21T02:46:26;7.40;;;6.50;;
25509;SDS011;13413;52.336;21.200;2022-08-21T02:50:55;6.70;;;5.70;;
25509;SDS011;13413;52.336;21.200;2022-08-21T02:55:28;7.30;;;6.00;;
25509;SDS011;13413;52.336;21.200;2022-08-21T02:59:57;6.70;;;5.60;;
25509;SDS011;13413;52.336;21.200;2022-08-21T03:04:25;7.00;;;5.40;;
25509;SDS011;13413;52.336;21.200;2022-08-21T03:08:53;7.80;;;6.40;;
25509;SDS011;13413;52.336;21.200;2022-08-21T03:13:22;9.00;;;5.70;;
25509;SDS011;13413;52.336;21.200;2022-08-21T03:17:51;8.60;;;6.20;;
25509;SDS011;13413;52.336;21.200;2022-08-21T03:22:19;8.90;;;6.10;;
25509;SDS011;13413;52.336;21.200;2022-08-21T03:26:47;12.30;;;6.30;;
25509;SDS011;13413;52.336;21.200;2022-08-21T03:31:16;7.80;;;6.30;;
25509;SDS011;13413;52.336;21.200;2022-08-21T03:35:46;6.70;;;6.00;;
25509;SDS011;13413;52.336;21.200;2022-08-21T03:40:19;8.80;;;6.30;;
25509;SDS011;13413;52.336;21.200;2022-08-21T03:44:48;9.10;;;6.40;;
25509;SDS011;13413;52.336;21.200;2022-08-21T03:49:16;7.50;;;6.40;;
25509;SDS011;13413;52.336;21.200;2022-08-21T03:53:45;7.60;;;6.90;;
25509;SDS011;13413;52.336;21.200;2022-08-21T03:58:14;8.20;;;6.80;;
25509;SDS011;13413;52.336;21.200;2022-08-21T04:02:43;6.60;;;5.90;;
25509;SDS011;13413;52.336;21.200;2022-08-21T04:07:11;7.20;;;6.50;;
25509;SDS011;13413;52.336;21.200;2022-08-21T04:22:03;6.50;;;5.90;;
25509;SDS011;13413;52.336;21.200;2022-08-21T04:25:31;7.10;;;6.40;;
25509;SDS011;13413;52.336;21.200;2022-08-21T04:29:58;7.50;;;6.10;;
25509;SDS011;13413;52.336;21.200;2022-08-21T04:34:28;7.00;;;6.30;;
25509;SDS011;13413;52.336;21.200;2022-08-21T04:38:56;9.00;;;6.90;;
25509;SDS011;13413;52.336;21.200;2022-08-21T04:43:24;9.60;;;6.20;;
25509;SDS011;13413;52.336;21.200;2022-08-21T04:47:54;6.30;;;5.70;;
25509;SDS011;13413;52.336;21.200;2022-08-21T04:52:23;6.20;;;5.60;;
25509;SDS011;13413;52.336;21.200;2022-08-21T04:56:54;6.80;;;6.00;;
25509;SDS011;13413;52.336;21.200;2022-08-21T05:01:27;6.80;;;5.30;;
25509;SDS011;13413;52.336;21.200;2022-08-21T05:05:57;7.20;;;5.20;;
25509;SDS011;13413;52.336;21.200;2022-08-21T05:10:26;6.40;;;5.80;;
25509;SDS011;13413;52.336;21.200;2022-08-21T05:14:56;9.40;;;5.70;;
25509;SDS011;13413;52.336;21.200;2022-08-21T05:19:24;6.80;;;5.30;;
25509;SDS011;13413;52.336;21.200;2022-08-21T05:23:51;5.60;;;5.00;;
25509;SDS011;13413;52.336;21.200;2022-08-21T05:28:21;7.10;;;5.70;;
25509;SDS011;13413;52.336;21.200;2022-08-21T05:32:55;7.40;;;6.40;;
25509;SDS011;13413;52.336;21.200;2022-08-21T05:37:25;8.20;;;5.60;;
25509;SDS011;13413;52.336;21.200;2022-08-21T05:41:52;5.90;;;5.30;;
25509;SDS011;13413;52.336;21.200;2022-08-21T05:46:33;7.70;;;5.70;;
25509;SDS011;13413;52.336;21.200;2022-08-21T05:51:05;7.40;;;6.00;;
25509;SDS011;13413;52.336;21.200;2022-08-21T05:55:37;6.10;;;5.50;;
25509;SDS011;13413;52.336;21.200;2022-08-21T06:00:08;10.20;;;5.60;;
25509;SDS011;13413;52.336;21.200;2022-08-21T06:04:38;6.90;;;5.90;;
25509;SDS011;13413;52.336;21.200;2022-08-21T06:09:06;8.20;;;5.70;;
25509;SDS011;13413;52.336;21.200;2022-08-21T06:13:34;6.70;;;5.40;;
25509;SDS011;13413;52.336;21.200;2022-08-21T06:18:02;7.00;;;5.20;;
25509;SDS011;13413;52.336;21.200;2022-08-21T06:22:31;8.10;;;6.10;;
25509;SDS011;13413;52.336;21.200;2022-08-21T06:27:05;8.60;;;6.30;;
25509;SDS011;13413;52.336;21.200;2022-08-21T06:31:32;8.50;;;5.70;;
25509;SDS011;13413;52.336;21.200;2022-08-21T06:36:01;6.40;;;5.70;;
25509;SDS011;13413;52.336;21.200;2022-08-21T06:40:34;7.30;;;5.50;;
25509;SDS011;13413;52.336;21.200;2022-08-21T06:45:03;8.00;;;6.10;;
25509;SDS011;13413;52.336;21.200;2022-08-21T06:49:32;5.90;;;5.40;;
25509;SDS011;13413;52.336;21.200;2022-08-21T06:54:00;6.60;;;5.70;;
25509;SDS011;13413;52.336;21.200;2022-08-21T06:58:28;6.90;;;5.70;;
25509;SDS011;13413;52.336;21.200;2022-08-21T07:02:56;6.50;;;5.30;;
25509;SDS011;13413;52.336;21.200;2022-08-21T07:07:24;7.00;;;6.10;;
25509;SDS011;13413;52.336;21.200;2022-08-21T07:11:53;9.10;;;5.40;;
25509;SDS011;13413;52.336;21.200;2022-08-21T07:16:21;7.50;;;6.10;;
25509;SDS011;13413;52.336;21.200;2022-08-21T07:20:50;6.80;;;5.90;;
25509;SDS011;13413;52.336;21.200;2022-08-21T07:25:18;7.40;;;5.90;;
25509;SDS011;13413;52.336;21.200;2022-08-21T07:29:47;7.50;;;5.50;;
25509;SDS011;13413;52.336;21.200;2022-08-21T07:38:43;6.60;;;5.50;;
25509;SDS011;13413;52.336;21.200;2022-08-21T07:43:11;6.00;;;5.40;;
25509;SDS011;13413;52.336;21.200;2022-08-21T07:47:39;6.40;;;5.80;;
25509;SDS011;13413;52.336;21.200;2022-08-21T07:52:08;6.00;;;5.30;;
25509;SDS011;13413;52.336;21.200;2022-08-21T07:56:36;5.90;;;5.10;;
25509;SDS011;13413;52.336;21.200;2022-08-21T08:01:05;7.70;;;5.80;;
25509;SDS011;13413;52.336;21.200;2022-08-21T08:05:33;5.70;;;5.20;;
25509;SDS011;13413;52.336;21.200;2022-08-21T08:10:02;5.60;;;5.00;;
25509;SDS011;13413;52.336;21.200;2022-08-21T08:14:32;5.50;;;5.00;;
25509;SDS011;13413;52.336;21.200;2022-08-21T08:19:01;5.60;;;4.90;;
25509;SDS011;13413;52.336;21.200;2022-08-21T08:23:30;6.60;;;4.60;;
25509;SDS011;13413;52.336;21.200;2022-08-21T08:27:59;5.10;;;4.60;;
25509;SDS011;13413;52.336;21.200;2022-08-21T08:32:27;4.70;;;4.30;;
25509;SDS011;13413;52.336;21.200;2022-08-21T08:36:54;5.80;;;4.90;;
25509;SDS011;13413;52.336;21.200;2022-08-21T08:41:24;5.30;;;4.10;;
25509;SDS011;13413;52.336;21.200;2022-08-21T08:45:54;6.00;;;4.30;;
25509;SDS011;13413;52.336;21.200;2022-08-21T08:55:14;4.50;;;4.10;;
25509;SDS011;13413;52.336;21.200;2022-08-21T08:59:44;4.30;;;3.90;;
25509;SDS011;13413;52.336;21.200;2022-08-21T09:04:15;5.70;;;4.60;;
25509;SDS011;13413;52.336;21.200;2022-08-21T09:08:50;4.40;;;4.00;;
25509;SDS011;13413;52.336;21.200;2022-08-21T09:13:48;4.30;;;3.90;;
25509;SDS011;13413;52.336;21.200;2022-08-21T09:17:30;4.50;;;3.90;;
25509;SDS011;13413;52.336;21.200;2022-08-21T09:22:06;4.70;;;4.20;;
25509;SDS011;13413;52.336;21.200;2022-08-21T09:26:43;8.80;;;4.00;;
25509;SDS011;13413;52.336;21.200;2022-08-21T09:31:19;4.30;;;3.90;;
25509;SDS011;13413;52.336;21.200;2022-08-21T09:35:52;8.60;;;3.80;;
25509;SDS011;13413;52.336;21.200;2022-08-21T09:40:30;6.80;;;3.70;;
25509;SDS011;13413;52.336;21.200;2022-08-21T09:45:07;4.20;;;3.50;;
25509;SDS011;13413;52.336;21.200;2022-08-21T09:49:39;5.50;;;3.90;;
25509;SDS011;13413;52.336;21.200;2022-08-21T09:54:14;6.20;;;3.80;;
25509;SDS011;13413;52.336;21.200;2022-08-21T09:58:45;4.60;;;3.30;;
25509;SDS011;13413;52.336;21.200;2022-08-21T10:03:16;3.10;;;2.70;;
25509;SDS011;13413;52.336;21.200;2022-08-21T10:07:46;7.60;;;3.20;;
25509;SDS011;13413;52.336;21.200;2022-08-21T10:12:16;5.20;;;3.00;;
25509;SDS011;13413;52.336;21.200;2022-08-21T10:16:52;4.40;;;3.50;;
25509;SDS011;13413;52.336;21.200;2022-08-21T10:21:33;4.70;;;2.70;;
25509;SDS011;13413;52.336;21.200;2022-08-21T10:26:08;6.80;;;3.70;;
25509;SDS011;13413;52.336;21.200;2022-08-21T10:30:45;3.00;;;2.80;;
25509;SDS011;13413;52.336;21.200;2022-08-21T10:35:17;3.40;;;2.90;;
25509;SDS011;13413;52.336;21.200;2022-08-21T10:39:51;3.40;;;2.60;;
25509;SDS011;13413;52.336;21.200;2022-08-21T10:44:29;4.80;;;3.40;;
25509;SDS011;13413;52.336;21.200;2022-08-21T10:49:05;3.50;;;3.10;;
25509;SDS011;13413;52.336;21.200;2022-08-21T10:53:57;3.70;;;3.30;;
25509;SDS011;13413;52.336;21.200;2022-08-21T10:58:31;5.30;;;2.90;;
25509;SDS011;13413;52.336;21.200;2022-08-21T11:03:04;3.60;;;3.30;;
25509;SDS011;13413;52.336;21.200;2022-08-21T11:07:39;3.10;;;2.80;;
25509;SDS011;13413;52.336;21.200;2022-08-21T11:12:16;11.50;;;3.40;;
25509;SDS011;13413;52.336;21.200;2022-08-21T11:16:51;6.40;;;3.00;;
25509;SDS011;13413;52.336;21.200;2022-08-21T11:21:29;4.10;;;2.90;;
25509;SDS011;13413;52.336;21.200;2022-08-21T11:26:04;5.10;;;3.00;;
25509;SDS011;13413;52.336;21.200;2022-08-21T11:30:39;3.10;;;2.80;;
25509;SDS011;13413;52.336;21.200;2022-08-21T11:35:17;3.20;;;2.50;;
25509;SDS011;13413;52.336;21.200;2022-08-21T11:39:50;3.00;;;2.70;;
25509;SDS011;13413;52.336;21.200;2022-08-21T11:44:28;3.80;;;2.30;;
25509;SDS011;13413;52.336;21.200;2022-08-21T11:49:06;4.20;;;2.80;;
25509;SDS011;13413;52.336;21.200;2022-08-21T11:53:46;3.40;;;3.10;;
25509;SDS011;13413;52.336;21.200;2022-08-21T11:58:19;4.80;;;2.80;;
25509;SDS011;13413;52.336;21.200;2022-08-21T12:02:52;3.20;;;2.60;;
25509;SDS011;13413;52.336;21.200;2022-08-21T12:07:30;2.90;;;2.70;;
25509;SDS011;13413;52.336;21.200;2022-08-21T12:16:32;7.80;;;2.80;;
25509;SDS011;13413;52.336;21.200;2022-08-21T12:21:20;2.60;;;2.40;;
25509;SDS011;13413;52.336;21.200;2022-08-21T12:26:00;4.50;;;3.00;;
25509;SDS011;13413;52.336;21.200;2022-08-21T12:30:37;3.30;;;2.50;;
25509;SDS011;13413;52.336;21.200;2022-08-21T12:35:09;5.50;;;3.00;;
25509;SDS011;13413;52.336;21.200;2022-08-21T12:39:44;3.30;;;2.90;;
25509;SDS011;13413;52.336;21.200;2022-08-21T12:44:17;3.10;;;2.70;;
25509;SDS011;13413;52.336;21.200;2022-08-21T12:48:51;3.40;;;3.00;;
25509;SDS011;13413;52.336;21.200;2022-08-21T12:53:26;3.30;;;3.00;;
25509;SDS011;13413;52.336;21.200;2022-08-21T12:57:56;3.00;;;2.80;;
25509;SDS011;13413;52.336;21.200;2022-08-21T13:02:25;3.30;;;3.00;;
25509;SDS011;13413;52.336;21.200;2022-08-21T13:06:58;3.40;;;3.10;;
25509;SDS011;13413;52.336;21.200;2022-08-21T13:11:26;3.00;;;2.70;;
25509;SDS011;13413;52.336;21.200;2022-08-21T13:15:57;6.20;;;3.30;;
25509;SDS011;13413;52.336;21.200;2022-08-21T13:20:29;3.50;;;3.20;;
25509;SDS011;13413;52.336;21.200;2022-08-21T13:25:01;5.70;;;3.00;;
25509;SDS011;13413;52.336;21.200;2022-08-21T13:29:34;3.00;;;2.80;;
25509;SDS011;13413;52.336;21.200;2022-08-21T13:34:03;4.00;;;3.30;;
25509;SDS011;13413;52.336;21.200;2022-08-21T13:38:32;3.00;;;2.70;;
25509;SDS011;13413;52.336;21.200;2022-08-21T13:43:00;3.30;;;3.00;;
25509;SDS011;13413;52.336;21.200;2022-08-21T13:47:30;3.10;;;2.70;;
25509;SDS011;13413;52.336;21.200;2022-08-21T13:51:58;3.30;;;3.00;;
25509;SDS011;13413;52.336;21.200;2022-08-21T13:56:28;3.20;;;2.70;;
25509;SDS011;13413;52.336;21.200;2022-08-21T14:00:59;2.50;;;2.30;;
25509;SDS011;13413;52.336;21.200;2022-08-21T14:05:29;3.20;;;2.60;;
25509;SDS011;13413;52.336;21.200;2022-08-21T14:10:01;4.30;;;2.40;;
25509;SDS011;13413;52.336;21.200;2022-08-21T14:14:33;2.70;;;2.50;;
25509;SDS011;13413;52.336;21.200;2022-08-21T14:19:09;3.40;;;2.80;;
25509;SDS011;13413;52.336;21.200;2022-08-21T14:23:45;3.80;;;2.60;;
25509;SDS011;13413;52.336;21.200;2022-08-21T14:28:17;3.60;;;2.60;;
25509;SDS011;13413;52.336;21.200;2022-08-21T14:32:51;3.50;;;3.00;;
25509;SDS011;13413;52.336;21.200;2022-08-21T14:37:20;2.90;;;2.60;;
25509;SDS011;13413;52.336;21.200;2022-08-21T14:41:48;8.40;;;2.80;;
25509;SDS011;13413;52.336;21.200;2022-08-21T14:46:20;4.60;;;2.60;;
25509;SDS011;13413;52.336;21.200;2022-08-21T14:50:50;4.70;;;2.80;;
25509;SDS011;13413;52.336;21.200;2022-08-21T14:55:17;2.90;;;2.70;;
25509;SDS011;13413;52.336;21.200;2022-08-21T14:59:45;3.40;;;3.00;;
25509;SDS011;13413;52.336;21.200;2022-08-21T15:04:13;3.00;;;2.80;;
25509;SDS011;13413;52.336;21.200;2022-08-21T15:08:41;5.30;;;3.40;;
25509;SDS011;13413;52.336;21.200;2022-08-21T15:13:09;3.70;;;3.40;;
25509;SDS011;13413;52.336;21.200;2022-08-21T15:17:38;4.50;;;3.30;;
25509;SDS011;13413;52.336;21.200;2022-08-21T15:22:07;4.10;;;3.10;;
25509;SDS011;13413;52.336;21.200;2022-08-21T15:26:37;4.50;;;3.40;;
25509;SDS011;13413;52.336;21.200;2022-08-21T15:31:05;4.60;;;3.50;;
25509;SDS011;13413;52.336;21.200;2022-08-21T15:35:34;3.70;;;3.40;;
25509;SDS011;13413;52.336;21.200;2022-08-21T15:40:06;3.20;;;3.00;;
25509;SDS011;13413;52.336;21.200;2022-08-21T15:44:36;8.40;;;3.80;;
25509;SDS011;13413;52.336;21.200;2022-08-21T15:49:07;4.20;;;3.50;;
25509;SDS011;13413;52.336;21.200;2022-08-21T15:53:35;8.50;;;5.70;;
25509;SDS011;13413;52.336;21.200;2022-08-21T15:58:04;6.40;;;5.00;;
25509;SDS011;13413;52.336;21.200;2022-08-21T16:02:33;6.30;;;5.20;;
25509;SDS011;13413;52.336;21.200;2022-08-21T16:07:02;8.40;;;4.30;;
25509;SDS011;13413;52.336;21.200;2022-08-21T16:11:32;11.30;;;4.30;;
25509;SDS011;13413;52.336;21.200;2022-08-21T16:16:00;5.00;;;3.70;;
25509;SDS011;13413;52.336;21.200;2022-08-21T16:20:30;4.70;;;4.30;;
25509;SDS011;13413;52.336;21.200;2022-08-21T16:24:59;4.70;;;4.30;;
25509;SDS011;13413;52.336;21.200;2022-08-21T16:29:26;4.90;;;4.20;;
25509;SDS011;13413;52.336;21.200;2022-08-21T16:34:00;5.00;;;4.50;;
25509;SDS011;13413;52.336;21.200;2022-08-21T16:38:29;7.00;;;4.40;;
25509;SDS011;13413;52.336;21.200;2022-08-21T16:42:59;6.80;;;4.40;;
25509;SDS011;13413;52.336;21.200;2022-08-21T16:47:26;4.30;;;3.50;;
25509;SDS011;13413;52.336;21.200;2022-08-21T16:51:54;3.90;;;3.50;;
25509;SDS011;13413;52.336;21.200;2022-08-21T16:56:22;5.70;;;4.50;;
25509;SDS011;13413;52.336;21.200;2022-08-21T17:05:21;10.40;;;9.50;;
25509;SDS011;13413;52.336;21.200;2022-08-21T17:09:49;6.30;;;5.70;;
25509;SDS011;13413;52.336;21.200;2022-08-21T17:14:19;7.60;;;4.90;;
25509;SDS011;13413;52.336;21.200;2022-08-21T17:18:48;5.10;;;4.40;;
25509;SDS011;13413;52.336;21.200;2022-08-21T17:23:16;5.10;;;4.30;;
25509;SDS011;13413;52.336;21.200;2022-08-21T17:27:43;7.90;;;4.10;;
25509;SDS011;13413;52.336;21.200;2022-08-21T17:32:13;6.10;;;4.50;;
25509;SDS011;13413;52.336;21.200;2022-08-21T17:36:42;9.20;;;4.90;;
25509;SDS011;13413;52.336;21.200;2022-08-21T17:41:11;5.80;;;4.30;;
25509;SDS011;13413;52.336;21.200;2022-08-21T17:45:39;6.50;;;4.60;;
25509;SDS011;13413;52.336;21.200;2022-08-21T17:50:10;11.10;;;7.30;;
25509;SDS011;13413;52.336;21.200;2022-08-21T17:54:40;9.50;;;5.90;;
25509;SDS011;13413;52.336;21.200;2022-08-21T17:59:08;7.00;;;6.20;;
25509;SDS011;13413;52.336;21.200;2022-08-21T18:03:38;25.10;;;21.90;;
25509;SDS011;13413;52.336;21.200;2022-08-21T18:08:05;15.00;;;13.50;;
25509;SDS011;13413;52.336;21.200;2022-08-21T18:12:34;9.80;;;5.60;;
25509;SDS011;13413;52.336;21.200;2022-08-21T18:17:21;8.10;;;5.90;;
25509;SDS011;13413;52.336;21.200;2022-08-21T18:20:51;24.70;;;8.30;;
25509;SDS011;13413;52.336;21.200;2022-08-21T18:25:18;7.80;;;5.70;;
25509;SDS011;13413;52.336;21.200;2022-08-21T18:29:53;6.00;;;4.60;;
25509;SDS011;13413;52.336;21.200;2022-08-21T18:34:24;7.50;;;5.00;;
25509;SDS011;13413;52.336;21.200;2022-08-21T18:38:54;10.30;;;5.70;;
25509;SDS011;13413;52.336;21.200;2022-08-21T18:43:22;8.80;;;6.10;;
25509;SDS011;13413;52.336;21.200;2022-08-21T18:47:52;7.00;;;6.30;;
25509;SDS011;13413;52.336;21.200;2022-08-21T18:52:22;8.30;;;5.40;;
25509;SDS011;13413;52.336;21.200;2022-08-21T18:57:09;10.10;;;5.70;;
25509;SDS011;13413;52.336;21.200;2022-08-21T19:00:40;9.60;;;8.60;;
25509;SDS011;13413;52.336;21.200;2022-08-21T19:09:54;9.00;;;7.60;;
25509;SDS011;13413;52.336;21.200;2022-08-21T19:14:22;9.70;;;7.10;;
25509;SDS011;13413;52.336;21.200;2022-08-21T19:18:50;7.30;;;6.40;;
25509;SDS011;13413;52.336;21.200;2022-08-21T19:23:18;14.30;;;7.00;;
25509;SDS011;13413;52.336;21.200;2022-08-21T19:27:47;7.00;;;6.20;;
25509;SDS011;13413;52.336;21.200;2022-08-21T19:36:46;7.40;;;6.20;;
25509;SDS011;13413;52.336;21.200;2022-08-21T19:41:14;7.60;;;6.10;;
25509;SDS011;13413;52.336;21.200;2022-08-21T19:46:03;8.30;;;6.20;;
25509;SDS011;13413;52.336;21.200;2022-08-21T19:50:32;11.00;;;6.90;;
25509;SDS011;13413;52.336;21.200;2022-08-21T19:55:01;25.60;;;8.10;;
25509;SDS011;13413;52.336;21.200;2022-08-21T19:59:30;12.60;;;7.40;;
25509;SDS011;13413;52.336;21.200;2022-08-21T20:03:58;13.60;;;7.80;;
25509;SDS011;13413;52.336;21.200;2022-08-21T20:08:27;15.20;;;8.70;;
25509;SDS011;13413;52.336;21.200;2022-08-21T20:12:56;11.20;;;8.30;;
25509;SDS011;13413;52.336;21.200;2022-08-21T20:17:26;11.40;;;7.50;;
25509;SDS011;13413;52.336;21.200;2022-08-21T20:22:16;10.60;;;7.20;;
25509;SDS011;13413;52.336;21.200;2022-08-21T20:25:46;13.00;;;7.80;;
25509;SDS011;13413;52.336;21.200;2022-08-21T20:30:15;12.40;;;7.30;;
25509;SDS011;13413;52.336;21.200;2022-08-21T20:34:44;10.60;;;8.00;;
25509;SDS011;13413;52.336;21.200;2022-08-21T20:39:13;11.10;;;7.90;;
25509;SDS011;13413;52.336;21.200;2022-08-21T20:43:41;12.40;;;7.90;;
25509;SDS011;13413;52.336;21.200;2022-08-21T20:48:10;8.80;;;7.60;;
25509;SDS011;13413;52.336;21.200;2022-08-21T20:52:43;10.60;;;8.20;;
25509;SDS011;13413;52.336;21.200;2022-08-21T20:57:17;14.90;;;9.40;;
25509;SDS011;13413;52.336;21.200;2022-08-21T21:01:48;13.90;;;10.10;;
25509;SDS011;13413;52.336;21.200;2022-08-21T21:06:21;16.40;;;9.90;;
25509;SDS011;13413;52.336;21.200;2022-08-21T21:10:53;17.80;;;9.80;;
25509;SDS011;13413;52.336;21.200;2022-08-21T21:15:25;17.30;;;10.20;;
25509;SDS011;13413;52.336;21.200;2022-08-21T21:19:57;12.20;;;9.50;;
25509;SDS011;13413;52.336;21.200;2022-08-21T21:24:32;16.20;;;9.40;;
25509;SDS011;13413;52.336;21.200;2022-08-21T21:29:24;16.10;;;9.10;;
25509;SDS011;13413;52.336;21.200;2022-08-21T21:33:57;11.60;;;9.30;;
25509;SDS011;13413;52.336;21.200;2022-08-21T21:38:27;10.90;;;8.80;;
25509;SDS011;13413;52.336;21.200;2022-08-21T21:43:04;15.70;;;9.70;;
25509;SDS011;13413;52.336;21.200;2022-08-21T21:47:43;11.50;;;9.40;;
25509;SDS011;13413;52.336;21.200;2022-08-21T21:52:28;10.10;;;8.80;;
25509;SDS011;13413;52.336;21.200;2022-08-21T21:57:14;11.00;;;9.20;;
25509;SDS011;13413;52.336;21.200;2022-08-21T22:01:56;16.70;;;10.10;;
25509;SDS011;13413;52.336;21.200;2022-08-21T22:06:32;17.40;;;10.30;;
25509;SDS011;13413;52.336;21.200;2022-08-21T22:11:07;11.80;;;9.40;;
25509;SDS011;13413;52.336;21.200;2022-08-21T22:15:44;10.80;;;8.80;;
25509;SDS011;13413;52.336;21.200;2022-08-21T22:20:22;11.90;;;9.40;;
25509;SDS011;13413;52.336;21.200;2022-08-21T22:24:59;11.40;;;9.10;;
25509;SDS011;13413;52.336;21.200;2022-08-21T22:29:43;11.30;;;8.80;;
25509;SDS011;13413;52.336;21.200;2022-08-21T22:34:18;11.80;;;8.80;;
25509;SDS011;13413;52.336;21.200;2022-08-21T22:37:52;15.10;;;9.10;;
25509;SDS011;13413;52.336;21.200;2022-08-21T22:42:23;11.30;;;9.30;;
25509;SDS011;13413;52.336;21.200;2022-08-21T22:46:52;11.10;;;9.70;;
25509;SDS011;13413;52.336;21.200;2022-08-21T22:51:26;12.30;;;9.90;;
25509;SDS011;13413;52.336;21.200;2022-08-21T22:56:03;12.60;;;9.10;;
25509;SDS011;13413;52.336;21.200;2022-08-21T23:00:40;13.40;;;9.80;;
25509;SDS011;13413;52.336;21.200;2022-08-21T23:05:17;10.80;;;9.70;;
25509;SDS011;13413;52.336;21.200;2022-08-21T23:09:48;10.90;;;9.90;;
25509;SDS011;13413;52.336;21.200;2022-08-21T23:14:16;12.20;;;10.20;;
25509;SDS011;13413;52.336;21.200;2022-08-21T23:18:48;12.90;;;10.20;;
25509;SDS011;13413;52.336;21.200;2022-08-21T23:23:24;11.80;;;9.80;;
25509;SDS011;13413;52.336;21.200;2022-08-21T23:27:56;12.60;;;10.00;;
25509;SDS011;13413;52.336;21.200;2022-08-21T23:32:41;14.60;;;10.40;;
25509;SDS011;13413;52.336;21.200;2022-08-21T23:37:31;11.50;;;10.30;;
25509;SDS011;13413;52.336;21.200;2022-08-21T23:42:08;12.70;;;10.80;;
25509;SDS011;13413;52.336;21.200;2022-08-21T23:46:57;12.10;;;9.70;;
25509;SDS011;13413;52.336;21.200;2022-08-21T23:51:40;11.70;;;10.40;;
25509;SDS011;13413;52.336;21.200;2022-08-21T23:56:17;10.90;;;9.90;;
